sensor_id;sensor_type;location;lat;lon;timestamp;P1;durP1;ratioP1;P2;durP2;ratioP2
30147;SDS011;16960;49.404;8.248;2023-07-13T00:00:46;4.03;;;1.70;;
30147;SDS011;16960;49.404;8.248;2023-07-13T00:03:13;2.90;;;1.70;;
30147;SDS011;16960;49.404;8.248;2023-07-13T00:05:40;3.37;;;1.50;;
30147;SDS011;16960;49.404;8.248;2023-07-13T00:08:07;4.03;;;1.87;;
30147;SDS011;16960;49.404;8.248;2023-07-13T00:10:40;3.60;;;2.20;;
30147;SDS011;16960;49.404;8.248;2023-07-13T00:13:07;2.50;;;1.50;;
30147;SDS011;16960;49.404;8.248;2023-07-13T00:15:35;1.80;;;1.50;;
30147;SDS011;16960;49.404;8.248;2023-07-13T00:18:02;3.23;;;2.00;;
30147;SDS011;16960;49.404;8.248;2023-07-13T00:20:29;2.07;;;1.70;;
30147;SDS011;16960;49.404;8.248;2023-07-13T00:22:57;2.00;;;1.80;;
30147;SDS011;16960;49.404;8.248;2023-07-13T00:25:24;3.57;;;1.60;;
30147;SDS011;16960;49.404;8.248;2023-07-13T00:27:54;5.10;;;1.80;;
30147;SDS011;16960;49.404;8.248;2023-07-13T00:30:21;3.77;;;2.50;;
30147;SDS011;16960;49.404;8.248;2023-07-13T00:32:49;2.07;;;1.83;;
30147;SDS011;16960;49.404;8.248;2023-07-13T00:35:16;4.10;;;2.30;;
30147;SDS011;16960;49.404;8.248;2023-07-13T00:37:44;6.63;;;2.20;;
30147;SDS011;16960;49.404;8.248;2023-07-13T00:40:11;5.30;;;1.90;;
30147;SDS011;16960;49.404;8.248;2023-07-13T00:42:39;4.07;;;1.93;;
30147;SDS011;16960;49.404;8.248;2023-07-13T00:48:05;4.17;;;2.20;;
30147;SDS011;16960;49.404;8.248;2023-07-13T00:50:32;2.33;;;2.00;;
30147;SDS011;16960;49.404;8.248;2023-07-13T00:52:59;4.30;;;1.80;;
30147;SDS011;16960;49.404;8.248;2023-07-13T00:55:26;6.03;;;2.30;;
30147;SDS011;16960;49.404;8.248;2023-07-13T00:57:53;2.30;;;1.93;;
30147;SDS011;16960;49.404;8.248;2023-07-13T01:00:20;1.97;;;1.77;;
30147;SDS011;16960;49.404;8.248;2023-07-13T01:02:48;3.20;;;1.90;;
30147;SDS011;16960;49.404;8.248;2023-07-13T01:05:20;3.43;;;2.07;;
30147;SDS011;16960;49.404;8.248;2023-07-13T01:07:48;2.77;;;1.80;;
30147;SDS011;16960;49.404;8.248;2023-07-13T01:10:20;2.80;;;2.23;;
30147;SDS011;16960;49.404;8.248;2023-07-13T01:12:48;3.63;;;2.10;;
30147;SDS011;16960;49.404;8.248;2023-07-13T01:15:34;4.07;;;2.17;;
30147;SDS011;16960;49.404;8.248;2023-07-13T01:18:08;3.20;;;2.00;;
30147;SDS011;16960;49.404;8.248;2023-07-13T01:21:00;4.50;;;2.00;;
30147;SDS011;16960;49.404;8.248;2023-07-13T01:23:28;6.00;;;2.17;;
30147;SDS011;16960;49.404;8.248;2023-07-13T01:25:57;2.13;;;1.90;;
30147;SDS011;16960;49.404;8.248;2023-07-13T01:28:25;5.83;;;2.60;;
30147;SDS011;16960;49.404;8.248;2023-07-13T01:30:53;2.80;;;2.10;;
30147;SDS011;16960;49.404;8.248;2023-07-13T01:33:21;3.10;;;2.37;;
30147;SDS011;16960;49.404;8.248;2023-07-13T01:35:49;3.13;;;2.30;;
30147;SDS011;16960;49.404;8.248;2023-07-13T01:38:20;6.90;;;2.80;;
30147;SDS011;16960;49.404;8.248;2023-07-13T01:40:48;4.00;;;2.47;;
30147;SDS011;16960;49.404;8.248;2023-07-13T01:43:15;3.17;;;1.90;;
30147;SDS011;16960;49.404;8.248;2023-07-13T01:45:42;4.50;;;2.70;;
30147;SDS011;16960;49.404;8.248;2023-07-13T01:48:09;2.93;;;2.60;;
30147;SDS011;16960;49.404;8.248;2023-07-13T01:50:37;6.03;;;2.27;;
30147;SDS011;16960;49.404;8.248;2023-07-13T01:53:04;5.13;;;2.43;;
30147;SDS011;16960;49.404;8.248;2023-07-13T01:55:33;3.20;;;1.90;;
30147;SDS011;16960;49.404;8.248;2023-07-13T01:58:00;2.23;;;2.00;;
30147;SDS011;16960;49.404;8.248;2023-07-13T02:00:28;3.33;;;2.07;;
30147;SDS011;16960;49.404;8.248;2023-07-13T02:02:55;3.53;;;2.27;;
30147;SDS011;16960;49.404;8.248;2023-07-13T02:05:22;3.33;;;2.70;;
30147;SDS011;16960;49.404;8.248;2023-07-13T02:07:49;4.13;;;2.83;;
30147;SDS011;16960;49.404;8.248;2023-07-13T02:10:16;10.70;;;2.80;;
30147;SDS011;16960;49.404;8.248;2023-07-13T02:12:45;4.53;;;2.80;;
30147;SDS011;16960;49.404;8.248;2023-07-13T02:15:14;3.23;;;2.40;;
30147;SDS011;16960;49.404;8.248;2023-07-13T02:17:41;4.17;;;2.60;;
30147;SDS011;16960;49.404;8.248;2023-07-13T02:20:08;3.63;;;2.20;;
30147;SDS011;16960;49.404;8.248;2023-07-13T02:22:36;6.17;;;2.63;;
30147;SDS011;16960;49.404;8.248;2023-07-13T02:25:03;4.10;;;3.00;;
30147;SDS011;16960;49.404;8.248;2023-07-13T02:27:31;6.87;;;2.50;;
30147;SDS011;16960;49.404;8.248;2023-07-13T02:29:59;3.13;;;2.40;;
30147;SDS011;16960;49.404;8.248;2023-07-13T02:32:26;4.23;;;1.93;;
30147;SDS011;16960;49.404;8.248;2023-07-13T02:34:53;3.67;;;2.10;;
30147;SDS011;16960;49.404;8.248;2023-07-13T02:37:20;2.90;;;2.17;;
30147;SDS011;16960;49.404;8.248;2023-07-13T02:39:47;2.87;;;2.50;;
30147;SDS011;16960;49.404;8.248;2023-07-13T02:42:14;2.47;;;1.80;;
30147;SDS011;16960;49.404;8.248;2023-07-13T02:44:41;5.50;;;1.90;;
30147;SDS011;16960;49.404;8.248;2023-07-13T02:47:09;3.10;;;2.13;;
30147;SDS011;16960;49.404;8.248;2023-07-13T02:49:36;2.57;;;1.83;;
30147;SDS011;16960;49.404;8.248;2023-07-13T02:52:04;2.17;;;1.97;;
30147;SDS011;16960;49.404;8.248;2023-07-13T02:54:31;3.50;;;1.97;;
30147;SDS011;16960;49.404;8.248;2023-07-13T02:56:58;4.10;;;2.30;;
30147;SDS011;16960;49.404;8.248;2023-07-13T02:59:25;5.10;;;2.37;;
30147;SDS011;16960;49.404;8.248;2023-07-13T03:01:52;2.90;;;2.10;;
30147;SDS011;16960;49.404;8.248;2023-07-13T03:04:20;4.50;;;2.23;;
30147;SDS011;16960;49.404;8.248;2023-07-13T03:06:47;4.67;;;2.40;;
30147;SDS011;16960;49.404;8.248;2023-07-13T03:09:14;2.27;;;2.07;;
30147;SDS011;16960;49.404;8.248;2023-07-13T03:11:41;5.00;;;2.27;;
30147;SDS011;16960;49.404;8.248;2023-07-13T03:14:08;3.53;;;1.90;;
30147;SDS011;16960;49.404;8.248;2023-07-13T03:16:35;2.37;;;2.03;;
30147;SDS011;16960;49.404;8.248;2023-07-13T03:19:02;2.13;;;1.70;;
30147;SDS011;16960;49.404;8.248;2023-07-13T03:21:30;1.80;;;1.70;;
30147;SDS011;16960;49.404;8.248;2023-07-13T03:23:57;4.23;;;2.50;;
30147;SDS011;16960;49.404;8.248;2023-07-13T03:26:24;2.53;;;1.83;;
30147;SDS011;16960;49.404;8.248;2023-07-13T03:28:51;2.37;;;1.70;;
30147;SDS011;16960;49.404;8.248;2023-07-13T03:31:19;2.20;;;1.93;;
30147;SDS011;16960;49.404;8.248;2023-07-13T03:33:47;3.63;;;1.93;;
30147;SDS011;16960;49.404;8.248;2023-07-13T03:36:15;5.13;;;2.80;;
30147;SDS011;16960;49.404;8.248;2023-07-13T03:38:47;2.13;;;1.93;;
30147;SDS011;16960;49.404;8.248;2023-07-13T03:41:15;2.60;;;2.23;;
30147;SDS011;16960;49.404;8.248;2023-07-13T03:43:42;4.03;;;2.90;;
30147;SDS011;16960;49.404;8.248;2023-07-13T03:46:09;8.00;;;2.87;;
30147;SDS011;16960;49.404;8.248;2023-07-13T03:48:36;5.03;;;2.53;;
30147;SDS011;16960;49.404;8.248;2023-07-13T03:51:05;3.03;;;2.30;;
30147;SDS011;16960;49.404;8.248;2023-07-13T03:53:32;5.43;;;2.00;;
30147;SDS011;16960;49.404;8.248;2023-07-13T03:56:00;2.40;;;2.00;;
30147;SDS011;16960;49.404;8.248;2023-07-13T03:58:29;3.80;;;2.50;;
30147;SDS011;16960;49.404;8.248;2023-07-13T04:00:57;4.37;;;1.90;;
30147;SDS011;16960;49.404;8.248;2023-07-13T04:03:25;3.27;;;2.20;;
30147;SDS011;16960;49.404;8.248;2023-07-13T04:05:53;3.30;;;2.20;;
30147;SDS011;16960;49.404;8.248;2023-07-13T04:08:24;5.13;;;2.30;;
30147;SDS011;16960;49.404;8.248;2023-07-13T04:10:52;4.37;;;2.47;;
30147;SDS011;16960;49.404;8.248;2023-07-13T04:13:20;3.50;;;2.37;;
30147;SDS011;16960;49.404;8.248;2023-07-13T04:15:48;3.70;;;2.37;;
30147;SDS011;16960;49.404;8.248;2023-07-13T04:18:15;3.10;;;2.50;;
30147;SDS011;16960;49.404;8.248;2023-07-13T04:20:42;4.70;;;2.57;;
30147;SDS011;16960;49.404;8.248;2023-07-13T04:23:09;8.73;;;3.20;;
30147;SDS011;16960;49.404;8.248;2023-07-13T04:25:35;3.10;;;2.10;;
30147;SDS011;16960;49.404;8.248;2023-07-13T04:28:03;4.53;;;2.10;;
30147;SDS011;16960;49.404;8.248;2023-07-13T04:30:32;2.30;;;1.63;;
30147;SDS011;16960;49.404;8.248;2023-07-13T04:32:59;3.07;;;2.30;;
30147;SDS011;16960;49.404;8.248;2023-07-13T04:35:26;2.90;;;2.10;;
30147;SDS011;16960;49.404;8.248;2023-07-13T04:37:53;2.97;;;2.10;;
30147;SDS011;16960;49.404;8.248;2023-07-13T04:40:20;1.97;;;1.77;;
30147;SDS011;16960;49.404;8.248;2023-07-13T04:42:47;4.53;;;2.77;;
30147;SDS011;16960;49.404;8.248;2023-07-13T04:45:14;3.07;;;1.83;;
30147;SDS011;16960;49.404;8.248;2023-07-13T04:47:43;2.97;;;2.03;;
30147;SDS011;16960;49.404;8.248;2023-07-13T04:50:12;3.10;;;2.10;;
30147;SDS011;16960;49.404;8.248;2023-07-13T04:52:45;2.80;;;2.00;;
30147;SDS011;16960;49.404;8.248;2023-07-13T04:55:12;3.00;;;2.13;;
30147;SDS011;16960;49.404;8.248;2023-07-13T04:57:38;3.03;;;2.20;;
30147;SDS011;16960;49.404;8.248;2023-07-13T05:00:06;3.50;;;2.77;;
30147;SDS011;16960;49.404;8.248;2023-07-13T05:02:37;5.80;;;2.10;;
30147;SDS011;16960;49.404;8.248;2023-07-13T05:05:07;13.60;;;2.80;;
30147;SDS011;16960;49.404;8.248;2023-07-13T05:07:34;3.67;;;2.37;;
30147;SDS011;16960;49.404;8.248;2023-07-13T05:10:01;5.70;;;2.63;;
30147;SDS011;16960;49.404;8.248;2023-07-13T05:12:28;4.30;;;2.07;;
30147;SDS011;16960;49.404;8.248;2023-07-13T05:14:55;6.80;;;2.90;;
30147;SDS011;16960;49.404;8.248;2023-07-13T05:17:22;4.87;;;2.47;;
30147;SDS011;16960;49.404;8.248;2023-07-13T05:19:49;5.03;;;2.07;;
30147;SDS011;16960;49.404;8.248;2023-07-13T05:22:17;8.57;;;2.90;;
30147;SDS011;16960;49.404;8.248;2023-07-13T05:24:44;8.23;;;3.23;;
30147;SDS011;16960;49.404;8.248;2023-07-13T05:27:11;4.27;;;2.10;;
30147;SDS011;16960;49.404;8.248;2023-07-13T05:29:38;5.60;;;2.23;;
30147;SDS011;16960;49.404;8.248;2023-07-13T05:32:05;4.60;;;2.03;;
30147;SDS011;16960;49.404;8.248;2023-07-13T05:34:32;4.70;;;2.10;;
30147;SDS011;16960;49.404;8.248;2023-07-13T05:36:59;5.60;;;2.27;;
30147;SDS011;16960;49.404;8.248;2023-07-13T05:39:28;5.10;;;2.20;;
30147;SDS011;16960;49.404;8.248;2023-07-13T05:41:54;2.37;;;1.70;;
30147;SDS011;16960;49.404;8.248;2023-07-13T05:44:21;2.20;;;2.00;;
30147;SDS011;16960;49.404;8.248;2023-07-13T05:46:48;4.50;;;2.10;;
30147;SDS011;16960;49.404;8.248;2023-07-13T05:49:15;4.60;;;2.10;;
30147;SDS011;16960;49.404;8.248;2023-07-13T05:51:42;4.53;;;2.40;;
30147;SDS011;16960;49.404;8.248;2023-07-13T05:54:09;6.53;;;2.40;;
30147;SDS011;16960;49.404;8.248;2023-07-13T05:56:37;4.60;;;2.20;;
30147;SDS011;16960;49.404;8.248;2023-07-13T05:59:04;3.87;;;2.27;;
30147;SDS011;16960;49.404;8.248;2023-07-13T06:01:31;5.73;;;2.63;;
30147;SDS011;16960;49.404;8.248;2023-07-13T06:03:58;6.03;;;2.70;;
30147;SDS011;16960;49.404;8.248;2023-07-13T06:06:25;4.87;;;2.53;;
30147;SDS011;16960;49.404;8.248;2023-07-13T06:08:52;6.50;;;2.50;;
30147;SDS011;16960;49.404;8.248;2023-07-13T06:11:20;4.60;;;2.00;;
30147;SDS011;16960;49.404;8.248;2023-07-13T06:13:50;4.00;;;2.13;;
30147;SDS011;16960;49.404;8.248;2023-07-13T06:16:17;2.67;;;1.97;;
30147;SDS011;16960;49.404;8.248;2023-07-13T06:18:44;4.80;;;2.30;;
30147;SDS011;16960;49.404;8.248;2023-07-13T06:21:13;3.03;;;2.03;;
30147;SDS011;16960;49.404;8.248;2023-07-13T06:23:41;4.90;;;2.13;;
30147;SDS011;16960;49.404;8.248;2023-07-13T06:26:08;6.17;;;1.87;;
30147;SDS011;16960;49.404;8.248;2023-07-13T06:28:37;3.90;;;1.70;;
30147;SDS011;16960;49.404;8.248;2023-07-13T06:31:06;4.70;;;1.60;;
30147;SDS011;16960;49.404;8.248;2023-07-13T06:33:34;2.93;;;1.77;;
30147;SDS011;16960;49.404;8.248;2023-07-13T06:36:02;4.60;;;2.00;;
30147;SDS011;16960;49.404;8.248;2023-07-13T06:38:29;2.80;;;1.60;;
30147;SDS011;16960;49.404;8.248;2023-07-13T06:40:56;3.73;;;2.00;;
30147;SDS011;16960;49.404;8.248;2023-07-13T06:43:23;2.23;;;2.03;;
30147;SDS011;16960;49.404;8.248;2023-07-13T06:45:51;5.47;;;1.80;;
30147;SDS011;16960;49.404;8.248;2023-07-13T06:48:21;2.27;;;1.77;;
30147;SDS011;16960;49.404;8.248;2023-07-13T06:50:49;3.23;;;1.83;;
30147;SDS011;16960;49.404;8.248;2023-07-13T06:53:18;1.93;;;1.73;;
30147;SDS011;16960;49.404;8.248;2023-07-13T06:55:46;3.53;;;1.73;;
30147;SDS011;16960;49.404;8.248;2023-07-13T06:58:14;2.50;;;1.70;;
30147;SDS011;16960;49.404;8.248;2023-07-13T07:00:41;2.67;;;1.47;;
30147;SDS011;16960;49.404;8.248;2023-07-13T07:03:08;2.83;;;1.70;;
30147;SDS011;16960;49.404;8.248;2023-07-13T07:05:36;2.03;;;1.57;;
30147;SDS011;16960;49.404;8.248;2023-07-13T07:08:04;2.47;;;1.50;;
30147;SDS011;16960;49.404;8.248;2023-07-13T07:10:31;2.77;;;1.40;;
30147;SDS011;16960;49.404;8.248;2023-07-13T07:12:59;3.87;;;1.80;;
30147;SDS011;16960;49.404;8.248;2023-07-13T07:15:26;4.57;;;1.43;;
30147;SDS011;16960;49.404;8.248;2023-07-13T07:17:53;1.73;;;1.23;;
30147;SDS011;16960;49.404;8.248;2023-07-13T07:20:20;1.50;;;1.20;;
30147;SDS011;16960;49.404;8.248;2023-07-13T07:22:48;3.40;;;1.50;;
30147;SDS011;16960;49.404;8.248;2023-07-13T07:25:15;4.20;;;1.80;;
30147;SDS011;16960;49.404;8.248;2023-07-13T07:27:42;1.93;;;1.40;;
30147;SDS011;16960;49.404;8.248;2023-07-13T07:30:10;3.13;;;1.60;;
30147;SDS011;16960;49.404;8.248;2023-07-13T07:32:37;3.47;;;1.23;;
30147;SDS011;16960;49.404;8.248;2023-07-13T07:35:04;2.60;;;1.40;;
30147;SDS011;16960;49.404;8.248;2023-07-13T07:37:32;6.63;;;2.07;;
30147;SDS011;16960;49.404;8.248;2023-07-13T07:40:00;2.83;;;1.70;;
30147;SDS011;16960;49.404;8.248;2023-07-13T07:42:28;5.20;;;1.40;;
30147;SDS011;16960;49.404;8.248;2023-07-13T07:44:54;5.47;;;1.73;;
30147;SDS011;16960;49.404;8.248;2023-07-13T07:47:21;3.70;;;1.30;;
30147;SDS011;16960;49.404;8.248;2023-07-13T07:49:49;1.80;;;1.30;;
30147;SDS011;16960;49.404;8.248;2023-07-13T07:52:16;3.43;;;1.30;;
30147;SDS011;16960;49.404;8.248;2023-07-13T07:54:43;3.40;;;1.67;;
30147;SDS011;16960;49.404;8.248;2023-07-13T07:57:11;2.10;;;1.50;;
30147;SDS011;16960;49.404;8.248;2023-07-13T07:59:38;3.40;;;1.40;;
30147;SDS011;16960;49.404;8.248;2023-07-13T08:02:05;2.43;;;1.87;;
30147;SDS011;16960;49.404;8.248;2023-07-13T08:04:34;3.57;;;1.20;;
30147;SDS011;16960;49.404;8.248;2023-07-13T08:07:01;2.73;;;1.50;;
30147;SDS011;16960;49.404;8.248;2023-07-13T08:09:29;3.60;;;1.90;;
30147;SDS011;16960;49.404;8.248;2023-07-13T08:11:56;3.53;;;1.70;;
30147;SDS011;16960;49.404;8.248;2023-07-13T08:14:24;4.33;;;1.53;;
30147;SDS011;16960;49.404;8.248;2023-07-13T08:16:51;2.90;;;1.87;;
30147;SDS011;16960;49.404;8.248;2023-07-13T08:19:18;3.30;;;1.90;;
30147;SDS011;16960;49.404;8.248;2023-07-13T08:21:45;2.63;;;1.33;;
30147;SDS011;16960;49.404;8.248;2023-07-13T08:24:14;2.60;;;1.67;;
30147;SDS011;16960;49.404;8.248;2023-07-13T08:26:43;2.30;;;1.63;;
30147;SDS011;16960;49.404;8.248;2023-07-13T08:29:10;1.87;;;1.40;;
30147;SDS011;16960;49.404;8.248;2023-07-13T08:31:38;3.43;;;1.87;;
30147;SDS011;16960;49.404;8.248;2023-07-13T08:34:05;3.07;;;1.53;;
30147;SDS011;16960;49.404;8.248;2023-07-13T08:36:32;4.20;;;1.43;;
30147;SDS011;16960;49.404;8.248;2023-07-13T08:38:59;2.93;;;1.47;;
30147;SDS011;16960;49.404;8.248;2023-07-13T08:41:26;2.00;;;1.40;;
30147;SDS011;16960;49.404;8.248;2023-07-13T08:43:55;1.20;;;1.10;;
30147;SDS011;16960;49.404;8.248;2023-07-13T08:46:26;1.73;;;1.10;;
30147;SDS011;16960;49.404;8.248;2023-07-13T08:49:00;3.10;;;1.50;;
30147;SDS011;16960;49.404;8.248;2023-07-13T08:51:31;3.80;;;1.17;;
30147;SDS011;16960;49.404;8.248;2023-07-13T08:54:07;3.10;;;1.73;;
30147;SDS011;16960;49.404;8.248;2023-07-13T08:56:42;1.90;;;1.30;;
30147;SDS011;16960;49.404;8.248;2023-07-13T08:59:13;4.17;;;1.30;;
30147;SDS011;16960;49.404;8.248;2023-07-13T09:04:59;1.43;;;1.33;;
30147;SDS011;16960;49.404;8.248;2023-07-13T09:07:33;1.53;;;1.30;;
30147;SDS011;16960;49.404;8.248;2023-07-13T09:10:11;1.30;;;1.20;;
30147;SDS011;16960;49.404;8.248;2023-07-13T09:12:45;2.63;;;1.20;;
30147;SDS011;16960;49.404;8.248;2023-07-13T09:15:24;2.80;;;1.47;;
30147;SDS011;16960;49.404;8.248;2023-07-13T09:17:57;3.73;;;1.53;;
30147;SDS011;16960;49.404;8.248;2023-07-13T09:20:30;1.33;;;1.23;;
30147;SDS011;16960;49.404;8.248;2023-07-13T09:23:00;1.53;;;1.40;;
30147;SDS011;16960;49.404;8.248;2023-07-13T09:25:32;2.80;;;1.47;;
30147;SDS011;16960;49.404;8.248;2023-07-13T09:28:02;1.13;;;1.03;;
30147;SDS011;16960;49.404;8.248;2023-07-13T09:30:37;2.00;;;1.43;;
30147;SDS011;16960;49.404;8.248;2023-07-13T09:33:11;2.30;;;1.10;;
30147;SDS011;16960;49.404;8.248;2023-07-13T09:35:40;2.33;;;1.03;;
30147;SDS011;16960;49.404;8.248;2023-07-13T09:38:11;1.40;;;1.30;;
30147;SDS011;16960;49.404;8.248;2023-07-13T09:40:42;1.43;;;0.93;;
30147;SDS011;16960;49.404;8.248;2023-07-13T09:43:15;4.70;;;1.30;;
30147;SDS011;16960;49.404;8.248;2023-07-13T09:45:45;2.87;;;1.07;;
30147;SDS011;16960;49.404;8.248;2023-07-13T09:48:13;1.33;;;1.20;;
30147;SDS011;16960;49.404;8.248;2023-07-13T09:50:43;1.20;;;1.10;;
30147;SDS011;16960;49.404;8.248;2023-07-13T09:53:11;1.40;;;0.90;;
30147;SDS011;16960;49.404;8.248;2023-07-13T09:55:40;1.87;;;1.17;;
30147;SDS011;16960;49.404;8.248;2023-07-13T09:58:09;1.17;;;1.00;;
30147;SDS011;16960;49.404;8.248;2023-07-13T10:00:38;1.47;;;0.90;;
30147;SDS011;16960;49.404;8.248;2023-07-13T10:03:13;1.67;;;1.03;;
30147;SDS011;16960;49.404;8.248;2023-07-13T10:05:48;2.93;;;1.20;;
30147;SDS011;16960;49.404;8.248;2023-07-13T10:08:17;1.30;;;1.20;;
30147;SDS011;16960;49.404;8.248;2023-07-13T10:10:45;1.83;;;1.00;;
30147;SDS011;16960;49.404;8.248;2023-07-13T10:13:28;1.40;;;1.00;;
30147;SDS011;16960;49.404;8.248;2023-07-13T10:15:57;1.13;;;0.90;;
30147;SDS011;16960;49.404;8.248;2023-07-13T10:18:25;1.73;;;0.90;;
30147;SDS011;16960;49.404;8.248;2023-07-13T10:20:58;2.17;;;1.13;;
30147;SDS011;16960;49.404;8.248;2023-07-13T10:23:36;2.60;;;1.30;;
30147;SDS011;16960;49.404;8.248;2023-07-13T10:26:04;2.27;;;1.57;;
30147;SDS011;16960;49.404;8.248;2023-07-13T10:28:36;2.20;;;1.00;;
30147;SDS011;16960;49.404;8.248;2023-07-13T10:31:06;1.17;;;0.90;;
30147;SDS011;16960;49.404;8.248;2023-07-13T10:33:39;1.10;;;0.80;;
30147;SDS011;16960;49.404;8.248;2023-07-13T10:36:11;1.10;;;0.67;;
30147;SDS011;16960;49.404;8.248;2023-07-13T10:38:41;1.43;;;0.80;;
30147;SDS011;16960;49.404;8.248;2023-07-13T10:41:10;2.10;;;1.33;;
30147;SDS011;16960;49.404;8.248;2023-07-13T10:43:41;1.83;;;1.17;;
30147;SDS011;16960;49.404;8.248;2023-07-13T10:46:11;1.30;;;0.93;;
30147;SDS011;16960;49.404;8.248;2023-07-13T10:48:41;1.47;;;0.90;;
30147;SDS011;16960;49.404;8.248;2023-07-13T10:51:13;2.57;;;0.90;;
30147;SDS011;16960;49.404;8.248;2023-07-13T10:53:42;1.40;;;1.10;;
30147;SDS011;16960;49.404;8.248;2023-07-13T10:56:19;1.40;;;0.90;;
30147;SDS011;16960;49.404;8.248;2023-07-13T10:59:01;1.40;;;0.90;;
30147;SDS011;16960;49.404;8.248;2023-07-13T11:01:39;3.33;;;1.17;;
30147;SDS011;16960;49.404;8.248;2023-07-13T11:04:12;1.03;;;0.90;;
30147;SDS011;16960;49.404;8.248;2023-07-13T11:06:41;0.90;;;0.73;;
30147;SDS011;16960;49.404;8.248;2023-07-13T11:09:30;1.23;;;0.80;;
30147;SDS011;16960;49.404;8.248;2023-07-13T11:12:06;1.70;;;1.10;;
30147;SDS011;16960;49.404;8.248;2023-07-13T11:14:36;1.80;;;1.30;;
30147;SDS011;16960;49.404;8.248;2023-07-13T11:19:51;1.23;;;0.90;;
30147;SDS011;16960;49.404;8.248;2023-07-13T11:22:24;1.73;;;0.90;;
30147;SDS011;16960;49.404;8.248;2023-07-13T11:24:54;2.07;;;1.00;;
30147;SDS011;16960;49.404;8.248;2023-07-13T11:27:37;1.10;;;0.90;;
30147;SDS011;16960;49.404;8.248;2023-07-13T11:30:08;1.10;;;0.77;;
30147;SDS011;16960;49.404;8.248;2023-07-13T11:32:42;1.40;;;0.90;;
30147;SDS011;16960;49.404;8.248;2023-07-13T11:35:12;1.00;;;0.83;;
30147;SDS011;16960;49.404;8.248;2023-07-13T11:37:43;1.00;;;0.90;;
30147;SDS011;16960;49.404;8.248;2023-07-13T11:40:12;2.10;;;1.07;;
30147;SDS011;16960;49.404;8.248;2023-07-13T11:42:40;3.00;;;0.90;;
30147;SDS011;16960;49.404;8.248;2023-07-13T11:45:14;1.30;;;1.20;;
30147;SDS011;16960;49.404;8.248;2023-07-13T11:47:48;1.47;;;0.53;;
30147;SDS011;16960;49.404;8.248;2023-07-13T11:50:19;1.80;;;1.47;;
30147;SDS011;16960;49.404;8.248;2023-07-13T11:52:48;1.63;;;1.10;;
30147;SDS011;16960;49.404;8.248;2023-07-13T11:55:19;4.33;;;1.13;;
30147;SDS011;16960;49.404;8.248;2023-07-13T11:57:50;4.80;;;1.30;;
30147;SDS011;16960;49.404;8.248;2023-07-13T12:00:21;8.37;;;2.13;;
30147;SDS011;16960;49.404;8.248;2023-07-13T12:02:52;5.07;;;1.20;;
30147;SDS011;16960;49.404;8.248;2023-07-13T12:05:21;4.23;;;1.30;;
30147;SDS011;16960;49.404;8.248;2023-07-13T12:07:51;2.30;;;1.10;;
30147;SDS011;16960;49.404;8.248;2023-07-13T12:10:20;3.43;;;1.10;;
30147;SDS011;16960;49.404;8.248;2023-07-13T12:12:48;5.60;;;1.40;;
30147;SDS011;16960;49.404;8.248;2023-07-13T12:15:17;3.07;;;1.27;;
30147;SDS011;16960;49.404;8.248;2023-07-13T12:17:45;2.33;;;0.97;;
30147;SDS011;16960;49.404;8.248;2023-07-13T12:20:17;1.50;;;1.03;;
30147;SDS011;16960;49.404;8.248;2023-07-13T12:22:48;3.10;;;1.03;;
30147;SDS011;16960;49.404;8.248;2023-07-13T12:25:17;3.33;;;1.10;;
30147;SDS011;16960;49.404;8.248;2023-07-13T12:27:48;2.70;;;1.07;;
30147;SDS011;16960;49.404;8.248;2023-07-13T12:30:27;1.97;;;1.10;;
30147;SDS011;16960;49.404;8.248;2023-07-13T12:32:59;1.90;;;0.87;;
30147;SDS011;16960;49.404;8.248;2023-07-13T12:35:28;3.07;;;1.80;;
30147;SDS011;16960;49.404;8.248;2023-07-13T12:38:01;2.27;;;1.27;;
30147;SDS011;16960;49.404;8.248;2023-07-13T12:40:31;2.10;;;1.00;;
30147;SDS011;16960;49.404;8.248;2023-07-13T12:43:02;1.63;;;0.93;;
30147;SDS011;16960;49.404;8.248;2023-07-13T12:45:31;1.40;;;0.80;;
30147;SDS011;16960;49.404;8.248;2023-07-13T12:48:03;1.50;;;1.03;;
30147;SDS011;16960;49.404;8.248;2023-07-13T12:50:36;1.33;;;0.80;;
30147;SDS011;16960;49.404;8.248;2023-07-13T12:53:09;1.23;;;0.93;;
30147;SDS011;16960;49.404;8.248;2023-07-13T12:55:40;1.17;;;0.80;;
30147;SDS011;16960;49.404;8.248;2023-07-13T12:58:09;2.03;;;0.83;;
30147;SDS011;16960;49.404;8.248;2023-07-13T13:00:47;1.80;;;1.03;;
30147;SDS011;16960;49.404;8.248;2023-07-13T13:03:20;2.33;;;0.73;;
30147;SDS011;16960;49.404;8.248;2023-07-13T13:05:56;3.33;;;0.87;;
30147;SDS011;16960;49.404;8.248;2023-07-13T13:08:26;1.47;;;0.83;;
30147;SDS011;16960;49.404;8.248;2023-07-13T13:10:53;8.33;;;1.43;;
30147;SDS011;16960;49.404;8.248;2023-07-13T13:13:20;2.27;;;1.23;;
30147;SDS011;16960;49.404;8.248;2023-07-13T13:15:47;1.40;;;0.90;;
30147;SDS011;16960;49.404;8.248;2023-07-13T13:18:17;1.37;;;0.87;;
30147;SDS011;16960;49.404;8.248;2023-07-13T13:20:46;0.73;;;0.73;;
30147;SDS011;16960;49.404;8.248;2023-07-13T13:23:14;1.60;;;0.97;;
30147;SDS011;16960;49.404;8.248;2023-07-13T13:25:44;1.97;;;1.03;;
30147;SDS011;16960;49.404;8.248;2023-07-13T13:28:13;3.40;;;1.13;;
30147;SDS011;16960;49.404;8.248;2023-07-13T13:30:43;1.90;;;0.93;;
30147;SDS011;16960;49.404;8.248;2023-07-13T13:33:10;2.27;;;1.00;;
30147;SDS011;16960;49.404;8.248;2023-07-13T13:35:39;1.77;;;0.97;;
30147;SDS011;16960;49.404;8.248;2023-07-13T13:38:09;4.47;;;0.93;;
30147;SDS011;16960;49.404;8.248;2023-07-13T13:40:39;1.00;;;0.90;;
30147;SDS011;16960;49.404;8.248;2023-07-13T13:43:15;1.00;;;0.80;;
30147;SDS011;16960;49.404;8.248;2023-07-13T13:45:42;1.17;;;0.90;;
30147;SDS011;16960;49.404;8.248;2023-07-13T13:48:13;1.63;;;0.90;;
30147;SDS011;16960;49.404;8.248;2023-07-13T13:50:41;4.13;;;0.87;;
30147;SDS011;16960;49.404;8.248;2023-07-13T13:53:10;4.63;;;0.93;;
30147;SDS011;16960;49.404;8.248;2023-07-13T13:55:39;3.10;;;1.10;;
30147;SDS011;16960;49.404;8.248;2023-07-13T13:58:07;3.13;;;0.80;;
30147;SDS011;16960;49.404;8.248;2023-07-13T14:00:35;3.93;;;0.90;;
30147;SDS011;16960;49.404;8.248;2023-07-13T14:03:03;1.57;;;1.20;;
30147;SDS011;16960;49.404;8.248;2023-07-13T14:05:32;1.20;;;0.90;;
30147;SDS011;16960;49.404;8.248;2023-07-13T14:07:59;1.47;;;0.80;;
30147;SDS011;16960;49.404;8.248;2023-07-13T14:10:26;1.30;;;0.90;;
30147;SDS011;16960;49.404;8.248;2023-07-13T14:12:54;1.50;;;0.90;;
30147;SDS011;16960;49.404;8.248;2023-07-13T14:15:23;4.90;;;1.20;;
30147;SDS011;16960;49.404;8.248;2023-07-13T14:17:54;1.27;;;1.10;;
30147;SDS011;16960;49.404;8.248;2023-07-13T14:20:24;2.00;;;1.07;;
30147;SDS011;16960;49.404;8.248;2023-07-13T14:22:51;2.13;;;0.90;;
30147;SDS011;16960;49.404;8.248;2023-07-13T14:25:20;1.77;;;0.87;;
30147;SDS011;16960;49.404;8.248;2023-07-13T14:27:48;1.33;;;1.00;;
30147;SDS011;16960;49.404;8.248;2023-07-13T14:30:18;4.00;;;0.80;;
30147;SDS011;16960;49.404;8.248;2023-07-13T14:32:47;2.53;;;1.13;;
30147;SDS011;16960;49.404;8.248;2023-07-13T14:35:17;1.77;;;1.20;;
30147;SDS011;16960;49.404;8.248;2023-07-13T14:37:46;2.07;;;0.97;;
30147;SDS011;16960;49.404;8.248;2023-07-13T14:40:14;1.47;;;1.03;;
30147;SDS011;16960;49.404;8.248;2023-07-13T14:42:42;2.10;;;0.97;;
30147;SDS011;16960;49.404;8.248;2023-07-13T14:45:13;1.13;;;0.70;;
30147;SDS011;16960;49.404;8.248;2023-07-13T14:47:41;2.10;;;0.90;;
30147;SDS011;16960;49.404;8.248;2023-07-13T14:50:12;0.70;;;0.60;;
30147;SDS011;16960;49.404;8.248;2023-07-13T14:52:43;1.27;;;0.97;;
30147;SDS011;16960;49.404;8.248;2023-07-13T14:55:11;0.93;;;0.80;;
30147;SDS011;16960;49.404;8.248;2023-07-13T14:57:39;1.87;;;1.00;;
30147;SDS011;16960;49.404;8.248;2023-07-13T15:00:12;1.57;;;1.07;;
30147;SDS011;16960;49.404;8.248;2023-07-13T15:02:41;1.70;;;1.27;;
30147;SDS011;16960;49.404;8.248;2023-07-13T15:05:14;1.37;;;1.03;;
30147;SDS011;16960;49.404;8.248;2023-07-13T15:07:44;3.97;;;0.87;;